地図

経路データ

SID SEASON NUMBER BASIN SUBBASIN NAME ISO_TIME NATURE LAT LON WMO_WIND WMO_PRES WMO_AGENCY TRACK_TYPE DIST2LAND LANDFALL IFLAG USA_AGENCY USA_ATCF_ID USA_LAT USA_LON USA_RECORD USA_STATUS USA_WIND USA_PRES USA_SSHS USA_R34_NE USA_R34_SE USA_R34_SW USA_R34_NW USA_R50_NE USA_R50_SE USA_R50_SW USA_R50_NW USA_R64_NE USA_R64_SE USA_R64_SW USA_R64_NW USA_POCI USA_ROCI USA_RMW USA_EYE TOKYO_LAT TOKYO_LON TOKYO_GRADE TOKYO_WIND TOKYO_PRES TOKYO_R50_DIR TOKYO_R50_LONG TOKYO_R50_SHORT TOKYO_R30_DIR TOKYO_R30_LONG TOKYO_R30_SHORT TOKYO_LAND CMA_LAT CMA_LON CMA_CAT CMA_WIND CMA_PRES HKO_LAT HKO_LON HKO_CAT HKO_WIND HKO_PRES NEWDELHI_LAT NEWDELHI_LON NEWDELHI_GRADE NEWDELHI_WIND NEWDELHI_PRES NEWDELHI_CI NEWDELHI_DP NEWDELHI_POCI REUNION_LAT REUNION_LON REUNION_TYPE REUNION_WIND REUNION_PRES REUNION_TNUM REUNION_CI REUNION_RMW REUNION_R34_NE REUNION_R34_SE REUNION_R34_SW REUNION_R34_NW REUNION_R50_NE REUNION_R50_SE REUNION_R50_SW REUNION_R50_NW REUNION_R64_NE REUNION_R64_SE REUNION_R64_SW REUNION_R64_NW BOM_LAT BOM_LON BOM_TYPE BOM_WIND BOM_PRES BOM_TNUM BOM_CI BOM_RMW BOM_R34_NE BOM_R34_SE BOM_R34_SW BOM_R34_NW BOM_R50_NE BOM_R50_SE BOM_R50_SW BOM_R50_NW BOM_R64_NE BOM_R64_SE BOM_R64_SW BOM_R64_NW BOM_ROCI BOM_POCI BOM_EYE BOM_POS_METHOD BOM_PRES_METHOD NADI_LAT NADI_LON NADI_CAT NADI_WIND NADI_PRES WELLINGTON_LAT WELLINGTON_LON WELLINGTON_WIND WELLINGTON_PRES DS824_LAT DS824_LON DS824_STAGE DS824_WIND DS824_PRES TD9636_LAT TD9636_LON TD9636_STAGE TD9636_WIND TD9636_PRES TD9635_LAT TD9635_LON TD9635_WIND TD9635_PRES TD9635_ROCI NEUMANN_LAT NEUMANN_LON NEUMANN_CLASS NEUMANN_WIND NEUMANN_PRES MLC_LAT MLC_LON MLC_CLASS MLC_WIND MLC_PRES USA_GUST BOM_GUST BOM_GUST_PER REUNION_GUST REUNION_GUST_PER USA_SEAHGT USA_SEARAD_NE USA_SEARAD_SE USA_SEARAD_SW USA_SEARAD_NW STORM_SPEED STORM_DIR
1899011S14125 1899 4 SI WA NOT_NAMED 1899-01-10 12:00:00 NR -14.0000 125.000 main 70 70 __________O___ -1 -14.0000 125.000 7 1 301
1899011S14125 1899 4 SI WA NOT_NAMED 1899-01-10 15:00:00 NR -13.9713 124.956 main 70 70 __________P___ -1 -13.9713 124.956 7 1 282
1899011S14125 1899 4 SI WA NOT_NAMED 1899-01-10 18:00:00 NR -13.9741 124.869 main 74 74 __________P___ -1 -13.9741 124.869 7 3 255
1899011S14125 1899 4 SI WA NOT_NAMED 1899-01-10 21:00:00 NR -14.0399 124.698 main 86 77 __________P___ -1 -14.0399 124.698 7 5 244
1899011S14125 1899 4 SI WA NOT_NAMED 1899-01-11 00:00:00 NR -14.2000 124.400 main 97 97 __________O___ -1 -14.2000 124.400 7 8 239
1899011S14125 1899 4 SI WA NOT_NAMED 1899-01-11 03:00:00 NR -14.4759 123.949 main 124 124 __________P___ -1 -14.4759 123.949 7 12 236
1899011S14125 1899 4 SI WA NOT_NAMED 1899-01-11 06:00:00 NR -14.8513 123.391 main 132 132 __________P___ -1 -14.8513 123.391 7 14 234
1899011S14125 1899 4 SI WA NOT_NAMED 1899-01-11 09:00:00 NR -15.3009 122.787 main 134 104 __________P___ -1 -15.3009 122.787 7 15 230
1899011S14125 1899 4 SI WA NOT_NAMED 1899-01-11 12:00:00 NR -15.8000 122.200 main 108 108 __________O___ -1 -15.8000 122.200 7 15 226
1899011S14125 1899 4 SI WA NOT_NAMED 1899-01-11 15:00:00 NR -16.3678 121.658 main 101 100 __________P___ -1 -16.3678 121.658 7 15 221
1899011S14125 1899 4 SI WA NOT_NAMED 1899-01-11 18:00:00 NR -16.9677 121.152 main 111 111 __________P___ -1 -16.9677 121.152 7 15 218
1899011S14125 1899 4 SI WA NOT_NAMED 1899-01-11 21:00:00 NR -17.5337 120.720 main 148 146 __________P___ -1 -17.5337 120.720 7 13 215
1899011S14125 1899 4 SI WA NOT_NAMED 1899-01-12 00:00:00 NR -18.0000 120.400 main 152 148 __________O___ -1 -18.0000 120.400 7 9 212
1899011S14125 1899 4 SI WA NOT_NAMED 1899-01-12 03:00:00 NR -18.2902 120.229 main 161 143 __________P___ -1 -18.2902 120.229 7 5 204
1899011S14125 1899 4 SI WA NOT_NAMED 1899-01-12 06:00:00 NR -18.4767 120.171 main 143 133 __________P___ -1 -18.4767 120.171 7 3 190
1899011S14125 1899 4 SI WA NOT_NAMED 1899-01-12 09:00:00 NR -18.5999 120.177 main 133 123 __________P___ -1 -18.5999 120.177 7 2 176
1899011S14125 1899 4 SI WA NOT_NAMED 1899-01-12 12:00:00 NR -18.7000 120.200 main 123 113 __________O___ -1 -18.7000 120.200 7 2 184
1899011S14125 1899 4 SI WA NOT_NAMED 1899-01-12 15:00:00 NR -18.8231 120.172 main 113 103 __________P___ -1 -18.8231 120.172 7 2 188
1899011S14125 1899 4 SI WA NOT_NAMED 1899-01-12 18:00:00 NR -18.9350 120.150 main 109 98 __________P___ -1 -18.9350 120.150 7 2 189
1899011S14125 1899 4 SI WA NOT_NAMED 1899-01-12 21:00:00 NR -19.0544 120.128 main 88 78 __________P___ -1 -19.0544 120.128 7 3 189
1899011S14125 1899 4 SI WA NOT_NAMED 1899-01-13 00:00:00 NR -19.2000 120.100 main 78 59 __________O___ -1 -19.2000 120.100 7 4 196
1899011S14125 1899 4 SI WA NOT_NAMED 1899-01-13 03:00:00 NR -19.4165 120.017 main 59 39 __________P___ -1 -19.4165 120.017 7 5 199
1899011S14125 1899 4 SI WA NOT_NAMED 1899-01-13 06:00:00 NR -19.6574 119.933 main 33 11 __________P___ -1 -19.6574 119.933 7 5 195
1899011S14125 1899 4 SI WA NOT_NAMED 1899-01-13 09:00:00 NR -19.8946 119.883 main 11 0 __________P___ -1 -19.8946 119.883 7 4 185
1899011S14125 1899 4 SI WA NOT_NAMED 1899-01-13 12:00:00 NR -20.1000 119.900 main 0 0 __________O___ -1 -20.1000 119.900 7 4 158
1899011S14125 1899 4 SI WA NOT_NAMED 1899-01-13 15:00:00 NR -20.2524 120.036 main 0 0 __________P___ -1 -20.2524 120.036 7 4 130
1899011S14125 1899 4 SI WA NOT_NAMED 1899-01-13 18:00:00 NR -20.3678 120.240 main 0 0 __________P___ -1 -20.3678 120.240 7 5 116
1899011S14125 1899 4 SI WA NOT_NAMED 1899-01-13 21:00:00 NR -20.4493 120.473 main 0 0 __________P___ -1 -20.4493 120.473 7 5 107
1899011S14125 1899 4 SI WA NOT_NAMED 1899-01-14 00:00:00 NR -20.5000 120.700 main 0 0 __________O___ -1 -20.5000 120.700 7 4 102
1899011S14125 1899 4 SI WA NOT_NAMED 1899-01-14 03:00:00 NR -20.5246 120.865 main 0 0 __________P___ -1 -20.5246 120.865 7 3 94
1899011S14125 1899 4 SI WA NOT_NAMED 1899-01-14 06:00:00 NR -20.5224 121.015 main 0 0 __________P___ -1 -20.5224 121.015 7 3 87
1899011S14125 1899 4 SI WA NOT_NAMED 1899-01-14 09:00:00 NR -20.5090 121.158 main 0 0 __________P___ -1 -20.5090 121.158 7 3 85
1899011S14125 1899 4 SI WA NOT_NAMED 1899-01-14 12:00:00 NR -20.5000 121.300 main 0 0 __________O___ -1 -20.5000 121.300 7 3 89
1899011S14125 1899 4 SI WA NOT_NAMED 1899-01-14 15:00:00 NR -20.5055 121.442 main 0 0 __________P___ -1 -20.5055 121.442 7 3 94
1899011S14125 1899 4 SI WA NOT_NAMED 1899-01-14 18:00:00 NR -20.5199 121.585 main 0 0 __________P___ -1 -20.5199 121.585 7 3 99
1899011S14125 1899 4 SI WA NOT_NAMED 1899-01-14 21:00:00 NR -20.5493 121.736 main 0 0 __________P___ -1 -20.5493 121.736 7 3 105
1899011S14125 1899 4 SI WA NOT_NAMED 1899-01-15 00:00:00 NR -20.6000 121.900 main 0 0 __________O___ -1 -20.6000 121.900 7 4 109
1899011S14125 1899 4 SI WA NOT_NAMED 1899-01-15 03:00:00 NR -20.6623 122.098 main 0 0 __________P___ -1 -20.6623 122.098 7 4 111
1899011S14125 1899 4 SI WA NOT_NAMED 1899-01-15 06:00:00 NR -20.7476 122.307 main 0 0 __________P___ -1 -20.7476 122.307 7 4 117
1899011S14125 1899 4 SI WA NOT_NAMED 1899-01-15 09:00:00 NR -20.8592 122.513 main 0 0 __________P___ -1 -20.8592 122.513 7 4 124
1899011S14125 1899 4 SI WA NOT_NAMED 1899-01-15 12:00:00 NR -21.0000 122.700 main 0 0 __________O___ -1 -21.0000 122.700 7 3 126
1899011S14125 1899 4 SI WA NOT_NAMED 1899-01-15 15:00:00 NR -21.0448 122.789 main 0 0 __________P___ -1 -21.0448 122.789 7 2 132
1899011S14125 1899 4 SI WA NOT_NAMED 1899-01-15 18:00:00 NR -21.1367 122.865 main 0 0 __________P___ -1 -21.1367 122.865 7 4 150
1899011S14125 1899 4 SI WA NOT_NAMED 1899-01-15 21:00:00 NR -21.3602 122.984 main 0 0 __________P___ -1 -21.3602 122.984 7 7 155
1899011S14125 1899 4 SI WA NOT_NAMED 1899-01-16 00:00:00 NR -21.8000 123.200 main 0 0 __________O___ -1 -21.8000 123.200 7 13 161
1899011S14125 1899 4 SI WA NOT_NAMED 1899-01-16 03:00:00 NR -22.5889 123.450 main 0 0 __________P___ -1 -22.5889 123.450 7 19 162
1899011S14125 1899 4 SI WA NOT_NAMED 1899-01-16 06:00:00 NR -23.5856 123.824 main 0 0 __________P___ -1 -23.5856 123.824 7 23 158
1899011S14125 1899 4 SI WA NOT_NAMED 1899-01-16 09:00:00 NR -24.6646 124.386 main 0 0 __________P___ -1 -24.6646 124.386 7 25 149
1899011S14125 1899 4 SI WA NOT_NAMED 1899-01-16 12:00:00 NR -25.7000 125.200 main 0 0 __________O___ -1 -25.7000 125.200 7 27 134
1899011S14125 1899 4 SI WA NOT_NAMED 1899-01-16 15:00:00 NR -26.5143 126.487 main 0 0 __________P___ -1 -26.5143 126.487 7 30 122
1899011S14125 1899 4 SI WA NOT_NAMED 1899-01-16 18:00:00 NR -27.2524 128.003 main 0 0 __________P___ -1 -27.2524 128.003 7 31 118
1899011S14125 1899 4 SI WA NOT_NAMED 1899-01-16 21:00:00 NR -27.9369 129.519 main 0 0 __________P___ -1 -27.9369 129.519 7 28 119
1899011S14125 1899 4 SI WA NOT_NAMED 1899-01-17 00:00:00 NR -28.6000 130.800 main 0 0 __________O___ -1 -28.6000 130.800 7 23 127
1899011S14125 1899 4 SI WA NOT_NAMED 1899-01-17 03:00:00 NR -29.3145 131.567 main 0 0 __________P___ -1 -29.3145 131.567 7 18 142
1899011S14125 1899 4 SI WA NOT_NAMED 1899-01-17 06:00:00 NR -30.0271 132.062 main 0 0 __________P___ -1 -30.0271 132.062 7 16 154
1899011S14125 1899 4 SI WA NOT_NAMED 1899-01-17 09:00:00 NR -30.7267 132.375 main 0 0 __________P___ -1 -30.7267 132.375 7 15 161
1899011S14125 1899 4 SI WA NOT_NAMED 1899-01-17 12:00:00 NR -31.4000 132.600 main 0 0 __________O___ -1 -31.4000 132.600 7 14 163
1899011S14125 1899 4 SI WA NOT_NAMED 1899-01-17 15:00:00 NR -32.0224 132.828 main 0 0 __________P___ -1 -32.0224 132.828 7 13 164
1899011S14125 1899 4 SI WA NOT_NAMED 1899-01-17 18:00:00 NR -32.6191 133.000 main 45 45 __________P___ -1 -32.6191 133.000 7 12 165
1899011S14125 1899 4 SI WA NOT_NAMED 1899-01-17 21:00:00 NR -33.2064 133.197 main 86 86 __________P___ -1 -33.2064 133.197 7 13 160
1899011S14125 1899 4 SI WA NOT_NAMED 1899-01-18 00:00:00 NR -33.8000 133.500 main 99 99 __________O___ -1 -33.8000 133.500 7 14 152
1899011S14125 1899 4 SI WA NOT_NAMED 1899-01-18 03:00:00 NR -34.4673 134.012 main 101 70 __________P___ -1 -34.4673 134.012 7 16 145
1899011S14125 1899 4 SI WA NOT_NAMED 1899-01-18 06:00:00 NR -35.1335 134.644 main 71 71 __________P___ -1 -35.1335 134.644 7 17 140
1899011S14125 1899 4 SP EA NOT_NAMED 1899-01-18 09:00:00 NR -35.7577 135.356 main 99 55 __________P___ -1 -35.7577 135.356 7 17 135
1899011S14125 1899 4 SP EA NOT_NAMED 1899-01-18 12:00:00 NR -36.3000 136.100 main 55 48 __________O___ -1 -36.3000 136.100 7 15 130
1899011S14125 1899 4 SP EA NOT_NAMED 1899-01-18 15:00:00 NR -36.7176 136.788 main 67 67 __________P___ -1 -36.7176 136.788 7 13 124
1899011S14125 1899 4 SP EA NOT_NAMED 1899-01-18 18:00:00 NR -37.0524 137.496 main 111 111 __________P___ -1 -37.0524 137.496 7 13 118
1899011S14125 1899 4 SP EA NOT_NAMED 1899-01-18 21:00:00 NR -37.3360 138.231 main 132 76 __________P___ -1 -37.3360 138.231 7 13 115
1899011S14125 1899 4 SP EA NOT_NAMED 1899-01-19 00:00:00 NR -37.6000 139.000 main 76 41 __________O___ -1 -37.6000 139.000 7 14 115
1899011S14125 1899 4 SP EA NOT_NAMED 1899-01-19 03:00:00 NR -37.9179 139.830 main 41 14 __________P___ -1 -37.9179 139.830 7 15 115
1899011S14125 1899 4 SP EA NOT_NAMED 1899-01-19 06:00:00 NR -38.2178 140.691 main 22 0 __________P___ -1 -38.2178 140.691 7 15 113
1899011S14125 1899 4 SP EA NOT_NAMED 1899-01-19 09:00:00 NR -38.4835 141.557 main 14 14 __________P___ -1 -38.4835 141.557 7 14 110
1899011S14125 1899 4 SP EA NOT_NAMED 1899-01-19 12:00:00 NR -38.7000 142.400 main 33 14 __________O___ -1 -38.7000 142.400 7 13 106
1899011S14125 1899 4 SP EA NOT_NAMED 1899-01-19 15:00:00 NR -38.8576 143.197 main 20 0 __________P___ -1 -38.8576 143.197 7 12 102
1899011S14125 1899 4 SP EA NOT_NAMED 1899-01-19 18:00:00 NR -38.9669 143.954 main 34 34 __________P___ -1 -38.9669 143.954 7 12 99
1899011S14125 1899 4 SP EA NOT_NAMED 1899-01-19 21:00:00 NR -39.0428 144.684 main 58 47 __________P___ -1 -39.0428 144.684 7 11 97
1899011S14125 1899 4 SP EA NOT_NAMED 1899-01-20 00:00:00 NR -39.1000 145.400 main 47 __________O___ -1 -39.1000 145.400 7 11 96

IBTrACS Databaseについて

本データベースは、米国NOAAが公開する1842年以降の世界の熱帯低気圧のベストトラックデータアーカイブInternational Best Track Archive for Climate Stewardship (IBTrACS)を、ウェブで閲覧しやすい形式に変換したものです。

最終更新日:2021-12-06